Time;durP1;ratioP1;P1;durP2;ratioP2;P2;SDS_P1;SDS_P2;PMS_P1;PMS_P2;Temp;Humidity;BMP_temperature;BMP_pressure;BME280_temperature;BME280_humidity;BME280_pressure;Samples;Min_cycle;Max_cycle;Signal;HPM_P1;HPM_P2
2021/06/15 00:00:09;;;;;;;12.13;9.43;;;20.70;99.80;;;;;;5056412;28;20431;-71
2021/06/15 00:02:34;;;;;;;12.97;9.20;;;20.70;99.80;;;;;;5056612;28;20466;-71
2021/06/15 00:05:00;;;;;;;11.40;10.23;;;20.70;99.90;;;;;;5056432;28;20425;-72
2021/06/15 00:07:26;;;;;;;10.90;9.80;;;20.70;99.90;;;;;;5056805;28;20210;-71
2021/06/15 00:09:51;;;;;;;10.43;9.33;;;20.60;99.90;;;;;;5052342;28;20217;-72
2021/06/15 00:12:17;;;;;;;11.40;10.20;;;20.60;99.90;;;;;;5048335;28;20413;-73
2021/06/15 00:14:42;;;;;;;13.10;10.07;;;20.60;99.90;;;;;;5056004;28;20224;-73
2021/06/15 00:17:08;;;;;;;11.87;9.73;;;20.50;99.90;;;;;;5056059;28;20178;-73
2021/06/15 00:19:33;;;;;;;12.90;10.73;;;20.50;99.90;;;;;;5056043;28;20177;-72
2021/06/15 00:21:59;;;;;;;11.37;10.20;;;20.50;99.90;;;;;;5055869;28;20217;-73
2021/06/15 00:24:24;;;;;;;11.37;10.20;;;20.50;99.90;;;;;;5055853;28;20181;-72
2021/06/15 00:26:50;;;;;;;14.37;10.37;;;20.40;99.90;;;;;;5055787;28;20247;-72
2021/06/15 00:29:15;;;;;;;11.00;9.53;;;20.40;99.90;;;;;;5056353;28;20194;-72
2021/06/15 00:31:41;;;;;;;13.93;12.23;;;20.40;99.90;;;;;;5055692;28;20240;-73
2021/06/15 00:34:06;;;;;;;11.67;10.40;;;20.30;99.90;;;;;;5056167;28;20178;-73
2021/06/15 00:36:32;;;;;;;12.47;10.13;;;20.20;99.90;;;;;;5056175;28;20209;-73
2021/06/15 00:38:57;;;;;;;11.40;10.17;;;20.20;99.90;;;;;;5055489;28;20582;-73
2021/06/15 00:41:23;;;;;;;10.57;9.43;;;20.20;99.90;;;;;;5055583;28;20170;-73
2021/06/15 00:43:49;;;;;;;12.70;9.43;;;20.10;99.90;;;;;;5055807;28;20178;-73
2021/06/15 00:46:14;;;;;;;10.43;9.43;;;20.00;99.90;;;;;;5055861;28;20311;-73
2021/06/15 00:48:42;;;;;;;11.53;9.63;;;20.00;99.90;;;;;;5055529;28;20206;-73
2021/06/15 00:51:08;;;;;;;12.60;9.80;;;19.90;99.90;;;;;;5059033;28;20209;-73
2021/06/15 00:53:37;;;;;;;10.73;9.73;;;19.90;99.90;;;;;;5073042;28;20432;-73
2021/06/15 00:56:04;;;;;;;11.33;10.13;;;19.90;99.90;;;;;;5060049;28;20436;-73
2021/06/15 00:58:30;;;;;;;11.83;10.57;;;19.90;99.90;;;;;;5055238;28;20800;-72
2021/06/15 01:00:56;;;;;;;12.33;10.90;;;19.80;99.90;;;;;;5055053;28;20451;-73
2021/06/15 01:03:23;;;;;;;11.80;10.50;;;19.70;99.90;;;;;;5054997;28;20582;-73
2021/06/15 01:05:49;;;;;;;16.20;12.20;;;19.70;99.90;;;;;;5055113;28;20449;-73
2021/06/15 01:08:44;;;;;;;12.90;11.37;;;19.70;99.90;;;;;;5055498;28;20539;-72
2021/06/15 01:11:31;;;;;;;12.90;11.40;;;19.70;99.90;;;;;;5055473;28;20756;-73
2021/06/15 01:14:19;;;;;;;12.73;11.50;;;19.60;99.90;;;;;;5054662;28;20894;-73
2021/06/15 01:16:54;;;;;;;12.40;10.37;;;19.40;99.90;;;;;;5055105;28;20507;-72
2021/06/15 01:19:46;;;;;;;14.23;11.03;;;19.30;99.90;;;;;;5055356;28;20862;-72
2021/06/15 01:22:44;;;;;;;15.43;12.40;;;19.20;99.90;;;;;;5034922;28;20441;-72
2021/06/15 01:25:43;;;;;;;12.47;11.03;;;19.20;99.90;;;;;;5034846;28;20466;-73
2021/06/15 01:28:15;;;;;;;13.30;10.77;;;19.10;99.90;;;;;;5035131;28;20961;-73
2021/06/15 01:30:55;;;;;;;14.93;10.93;;;19.10;99.90;;;;;;5038268;28;20898;-72
2021/06/15 01:33:23;;;;;;;15.80;12.90;;;19.10;99.90;;;;;;5054995;28;20393;-72
2021/06/15 01:35:50;;;;;;;11.40;10.20;;;19.10;99.90;;;;;;5054602;28;20428;-73
2021/06/15 01:38:19;;;;;;;13.43;11.20;;;19.10;99.90;;;;;;5054822;28;20416;-73
2021/06/15 01:41:08;;;;;;;13.67;11.67;;;19.00;99.90;;;;;;5055356;28;20412;-72
2021/06/15 01:43:44;;;;;;;13.10;11.80;;;19.00;99.90;;;;;;5053669;28;20424;-73
2021/06/15 01:46:12;;;;;;;13.20;11.87;;;19.00;99.90;;;;;;5054516;28;20432;-73
2021/06/15 01:48:48;;;;;;;12.00;10.33;;;19.00;99.90;;;;;;5054660;28;20460;-72
2021/06/15 01:51:16;;;;;;;12.77;11.47;;;18.90;99.90;;;;;;5053748;28;20456;-73
2021/06/15 01:53:47;;;;;;;12.50;11.00;;;18.90;99.90;;;;;;5054136;28;20753;-72
2021/06/15 01:56:15;;;;;;;16.43;11.83;;;18.90;99.90;;;;;;5054319;28;20432;-72
2021/06/15 01:58:44;;;;;;;13.10;11.83;;;18.80;99.90;;;;;;5054331;28;20435;-73
2021/06/15 02:01:10;;;;;;;12.67;11.13;;;18.80;99.90;;;;;;5053819;28;20432;-73
2021/06/15 02:03:36;;;;;;;13.07;11.60;;;18.80;99.90;;;;;;5053948;28;20412;-72
2021/06/15 02:06:04;;;;;;;13.83;12.30;;;18.80;99.90;;;;;;5053800;28;20457;-72
2021/06/15 02:08:34;;;;;;;15.33;11.03;;;18.90;99.90;;;;;;5054534;28;20540;-73
2021/06/15 02:11:00;;;;;;;12.20;9.77;;;18.90;99.90;;;;;;5053378;28;20425;-73
2021/06/15 02:13:30;;;;;;;12.50;11.20;;;18.90;99.90;;;;;;5053802;28;20415;-72
2021/06/15 02:15:59;;;;;;;14.30;10.27;;;19.00;99.90;;;;;;5053903;28;20779;-72
2021/06/15 02:18:28;;;;;;;12.30;9.63;;;19.00;99.90;;;;;;5054473;28;20496;-72
2021/06/15 02:20:56;;;;;;;11.47;10.40;;;19.10;99.90;;;;;;5054129;28;20444;-73
2021/06/15 02:23:24;;;;;;;14.43;11.70;;;19.10;99.90;;;;;;5053956;28;20452;-73
2021/06/15 02:25:58;;;;;;;11.40;10.27;;;19.20;99.90;;;;;;5053949;28;20443;-72
2021/06/15 02:28:23;;;;;;;13.83;10.67;;;19.20;99.90;;;;;;5053973;28;20835;-72
2021/06/15 02:30:49;;;;;;;13.17;9.93;;;19.20;99.90;;;;;;5053970;28;20448;-72
2021/06/15 02:33:30;;;;;;;12.30;10.83;;;19.20;99.90;;;;;;5053378;28;20182;-73
2021/06/15 02:36:03;;;;;;;13.73;10.73;;;19.20;99.90;;;;;;5053876;28;20254;-73
2021/06/15 02:38:39;;;;;;;14.30;10.80;;;19.20;99.90;;;;;;5054031;28;20922;-73
2021/06/15 02:41:08;;;;;;;12.57;10.70;;;19.20;99.90;;;;;;5053611;28;20435;-73
2021/06/15 02:43:36;;;;;;;12.33;11.03;;;19.20;99.90;;;;;;5053056;28;20421;-73
2021/06/15 02:46:03;;;;;;;14.40;11.30;;;19.20;99.90;;;;;;5052849;28;20442;-73
2021/06/15 02:48:33;;;;;;;15.70;11.83;;;19.30;99.90;;;;;;5051992;28;20464;-72
2021/06/15 02:51:00;;;;;;;14.53;12.70;;;19.30;99.90;;;;;;5053264;28;20413;-73
2021/06/15 02:53:50;;;;;;;15.20;13.70;;;19.10;99.90;;;;;;5052980;28;20812;-73
2021/06/15 02:56:21;;;;;;;14.37;12.83;;;19.10;99.90;;;;;;5052533;28;20790;-72
2021/06/15 02:58:47;;;;;;;15.00;13.27;;;18.90;99.90;;;;;;5053623;28;20511;-72
2021/06/15 03:01:13;;;;;;;12.60;11.30;;;18.90;99.90;;;;;;5053155;28;20774;-73
2021/06/15 03:03:38;;;;;;;14.07;11.97;;;18.80;99.90;;;;;;5054616;28;20425;-73
2021/06/15 03:06:05;;;;;;;14.23;12.70;;;18.80;99.90;;;;;;5057342;28;20280;-73
2021/06/15 03:08:33;;;;;;;15.00;12.57;;;18.80;99.90;;;;;;5057444;28;20562;-73
2021/06/15 03:10:58;;;;;;;14.37;11.77;;;18.90;99.90;;;;;;5057129;28;20412;-73
2021/06/15 03:13:37;;;;;;;19.73;12.03;;;18.90;99.90;;;;;;5056886;28;20758;-72
2021/06/15 03:16:06;;;;;;;12.70;10.97;;;19.00;99.90;;;;;;5043334;28;20671;-72
2021/06/15 03:18:32;;;;;;;13.80;11.60;;;19.00;99.90;;;;;;5057083;28;20920;-72
2021/06/15 03:21:03;;;;;;;16.33;12.30;;;19.10;99.90;;;;;;5057557;28;20408;-72
2021/06/15 03:23:49;;;;;;;12.50;11.30;;;19.10;99.90;;;;;;5055913;28;20524;-72
2021/06/15 03:26:20;;;;;;;13.67;11.97;;;19.10;99.90;;;;;;5056611;28;20854;-73
2021/06/15 03:28:56;;;;;;;15.23;13.03;;;19.10;99.90;;;;;;5056850;28;20506;-73
2021/06/15 03:31:24;;;;;;;14.23;12.93;;;19.10;99.90;;;;;;5056695;28;20420;-73
2021/06/15 03:33:50;;;;;;;14.67;13.20;;;19.10;99.90;;;;;;5056710;28;20401;-73
2021/06/15 03:36:18;;;;;;;17.30;13.57;;;19.10;99.90;;;;;;5056369;28;20987;-73
2021/06/15 03:38:46;;;;;;;16.77;12.83;;;19.00;99.90;;;;;;5056950;28;20412;-72
2021/06/15 03:41:15;;;;;;;15.23;13.73;;;19.10;99.90;;;;;;5057084;28;20404;-73
2021/06/15 03:43:46;;;;;;;15.03;13.50;;;19.00;99.90;;;;;;5056899;28;20415;-72
2021/06/15 03:46:13;;;;;;;17.40;14.30;;;18.80;99.90;;;;;;5053915;28;20976;-72
2021/06/15 03:48:44;;;;;;;17.00;15.30;;;18.80;99.90;;;;;;5039101;28;20453;-71
2021/06/15 03:51:13;;;;;;;19.17;16.40;;;18.50;99.90;;;;;;5037475;28;20785;-72
2021/06/15 03:53:40;;;;;;;17.90;16.03;;;18.40;99.90;;;;;;5036389;28;20616;-72
2021/06/15 03:56:07;;;;;;;19.23;17.17;;;18.50;99.90;;;;;;5036944;28;20779;-72
2021/06/15 03:58:33;;;;;;;19.27;17.27;;;18.40;99.90;;;;;;5053284;28;20552;-72
2021/06/15 04:01:01;;;;;;;17.00;15.20;;;18.50;99.90;;;;;;5056717;28;20417;-72
2021/06/15 04:03:30;;;;;;;20.53;16.50;;;18.50;99.90;;;;;;5056493;28;20413;-71
2021/06/15 04:05:57;;;;;;;21.00;16.50;;;18.40;99.90;;;;;;5056213;28;20424;-71
2021/06/15 04:08:24;;;;;;;22.10;16.67;;;18.50;99.90;;;;;;5056458;28;20444;-71
2021/06/15 04:10:53;;;;;;;19.10;16.20;;;18.50;99.90;;;;;;5056424;28;20770;-72
2021/06/15 04:13:23;;;;;;;18.93;15.77;;;18.60;99.90;;;;;;5056163;28;20810;-72
2021/06/15 04:15:49;;;;;;;21.97;17.47;;;18.60;99.90;;;;;;5055344;28;20441;-72
2021/06/15 04:18:16;;;;;;;21.40;17.63;;;18.60;99.90;;;;;;5056121;28;20469;-71
2021/06/15 04:20:46;;;;;;;19.67;17.70;;;18.60;99.90;;;;;;5056101;28;20924;-72
2021/06/15 04:23:20;;;;;;;18.90;16.90;;;18.50;99.90;;;;;;5056276;28;20412;-71
2021/06/15 04:25:47;;;;;;;20.70;17.97;;;18.60;99.90;;;;;;5056145;28;20436;-72
2021/06/15 04:28:14;;;;;;;22.77;18.53;;;18.60;99.90;;;;;;5055698;28;20448;-71
2021/06/15 04:30:40;;;;;;;23.53;19.60;;;18.60;99.90;;;;;;5055918;28;20424;-71
2021/06/15 04:33:09;;;;;;;20.87;17.33;;;18.60;99.90;;;;;;5056746;28;20463;-71
2021/06/15 04:35:43;;;;;;;22.90;20.07;;;18.60;99.90;;;;;;5056353;28;20949;-71
2021/06/15 04:38:12;;;;;;;21.97;19.67;;;18.60;99.90;;;;;;5056241;28;20777;-71
2021/06/15 04:40:41;;;;;;;25.23;21.10;;;18.60;99.90;;;;;;5056000;28;20425;-72
2021/06/15 04:43:10;;;;;;;21.73;19.37;;;18.60;99.90;;;;;;5055565;28;20416;-72
2021/06/15 04:45:42;;;;;;;22.13;18.07;;;18.60;99.90;;;;;;5055775;28;20445;-72
2021/06/15 04:48:11;;;;;;;23.77;18.53;;;18.70;99.90;;;;;;5055229;28;20547;-72
2021/06/15 04:50:37;;;;;;;19.13;17.13;;;18.80;99.90;;;;;;5055704;28;20926;-72
2021/06/15 04:53:05;;;;;;;19.13;17.13;;;18.90;99.90;;;;;;5054217;28;20409;-72
2021/06/15 04:55:37;;;;;;;18.53;16.70;;;18.90;99.90;;;;;;5044161;28;20213;-71
2021/06/15 04:58:06;;;;;;;20.33;18.13;;;18.90;99.90;;;;;;5055674;28;20467;-73
2021/06/15 05:00:32;;;;;;;19.57;16.80;;;18.90;99.90;;;;;;5047880;28;20492;-71
2021/06/15 05:02:58;;;;;;;17.97;16.17;;;19.00;99.90;;;;;;5038585;28;20433;-72
2021/06/15 05:05:24;;;;;;;22.20;18.07;;;19.10;99.90;;;;;;5046384;28;20444;-73
2021/06/15 05:08:05;;;;;;;18.70;16.70;;;19.20;99.90;;;;;;5045523;28;20460;-72
2021/06/15 05:10:32;;;;;;;19.07;16.87;;;19.10;99.90;;;;;;5045220;28;20441;-72
2021/06/15 05:12:58;;;;;;;18.73;16.83;;;19.00;99.90;;;;;;5037662;28;21215;-72
2021/06/15 05:15:28;;;;;;;21.80;18.10;;;18.90;99.90;;;;;;5046823;28;20437;-72
2021/06/15 05:17:56;;;;;;;20.93;17.23;;;18.80;99.90;;;;;;5035115;28;20440;-72
2021/06/15 05:20:23;;;;;;;20.23;16.37;;;18.90;99.90;;;;;;5035580;28;20808;-72
2021/06/15 05:23:15;;;;;;;20.23;16.60;;;19.00;99.90;;;;;;5049853;28;20443;-72
2021/06/15 05:25:42;;;;;;;19.57;17.67;;;19.10;99.90;;;;;;5052748;28;20862;-72
2021/06/15 05:28:07;;;;;;;20.07;17.90;;;19.20;99.90;;;;;;5055322;28;20455;-72
2021/06/15 05:30:34;;;;;;;23.17;16.90;;;19.30;99.90;;;;;;5062722;28;21000;-72
2021/06/15 05:33:00;;;;;;;18.23;16.23;;;19.30;99.90;;;;;;5064242;28;20178;-72
2021/06/15 05:35:26;;;;;;;18.93;16.90;;;19.40;99.90;;;;;;5070188;28;20436;-72
2021/06/15 05:37:51;;;;;;;18.20;16.20;;;19.40;99.90;;;;;;5071610;28;20270;-72
2021/06/15 05:40:21;;;;;;;20.70;18.13;;;19.50;99.90;;;;;;5061479;28;20539;-74
2021/06/15 05:42:47;;;;;;;20.83;18.63;;;19.50;99.90;;;;;;5059330;28;20253;-73
2021/06/15 05:45:15;;;;;;;19.57;17.37;;;19.50;99.90;;;;;;5065731;28;20447;-73
2021/06/15 05:47:43;;;;;;;22.87;17.23;;;19.60;99.90;;;;;;5040497;28;20451;-74
2021/06/15 05:50:10;;;;;;;19.10;17.20;;;19.60;99.90;;;;;;5065404;28;20429;-72
2021/06/15 05:52:46;;;;;;;19.93;17.90;;;19.70;99.90;;;;;;5063917;27;20444;-73
2021/06/15 05:55:13;;;;;;;23.87;19.03;;;19.70;99.90;;;;;;5071539;28;20862;-72
2021/06/15 05:57:39;;;;;;;22.93;19.27;;;19.80;99.90;;;;;;5070668;28;20407;-72
2021/06/15 06:00:07;;;;;;;24.23;19.47;;;19.80;99.90;;;;;;5069795;28;20443;-72
2021/06/15 06:02:32;;;;;;;21.50;18.17;;;19.70;99.90;;;;;;5058428;28;20789;-71
2021/06/15 06:10:10;;;;;;;22.00;19.37;;;19.70;99.90;;;;;;5070222;28;20203;-72
2021/06/15 06:12:36;;;;;;;21.27;18.97;;;19.70;99.90;;;;;;5068238;28;20511;-72
2021/06/15 06:15:02;;;;;;;23.17;18.37;;;19.80;99.90;;;;;;5070312;28;20527;-72
2021/06/15 06:17:28;;;;;;;20.87;17.63;;;19.90;99.90;;;;;;5065286;28;20221;-73
2021/06/15 06:19:54;;;;;;;21.40;18.07;;;20.00;99.90;;;;;;5065912;28;20457;-73
2021/06/15 06:22:20;;;;;;;21.80;19.60;;;20.00;99.90;;;;;;5056351;28;20452;-73
2021/06/15 06:24:46;;;;;;;21.77;17.90;;;20.10;99.90;;;;;;5056644;28;20575;-72
2021/06/15 06:27:12;;;;;;;22.47;17.93;;;20.10;99.90;;;;;;5067848;28;20506;-71
2021/06/15 06:29:37;;;;;;;21.97;19.67;;;20.20;99.90;;;;;;5071967;28;20459;-71
2021/06/15 06:32:04;;;;;;;21.80;17.87;;;20.30;99.90;;;;;;5056745;28;20174;-71
2021/06/15 06:34:29;;;;;;;20.40;17.67;;;20.30;99.90;;;;;;5062225;28;20174;-71
2021/06/15 06:36:55;;;;;;;20.73;18.63;;;20.40;99.90;;;;;;5070496;28;20473;-72
2021/06/15 06:39:20;;;;;;;20.17;17.53;;;20.40;99.90;;;;;;5069808;28;20553;-71
2021/06/15 06:41:46;;;;;;;20.60;17.73;;;20.50;99.90;;;;;;5065592;28;20651;-70
2021/06/15 06:44:11;;;;;;;20.97;18.87;;;20.60;99.90;;;;;;5071938;28;20192;-71
2021/06/15 06:46:37;;;;;;;23.90;18.50;;;20.60;99.90;;;;;;5071221;28;20209;-72
2021/06/15 06:49:03;;;;;;;20.80;18.63;;;20.70;99.90;;;;;;5064985;28;20238;-72
2021/06/15 06:51:28;;;;;;;20.30;17.80;;;20.80;99.90;;;;;;5066127;28;20228;-72
2021/06/15 06:53:55;;;;;;;28.77;19.77;;;20.80;99.90;;;;;;5054612;28;20211;-72
2021/06/15 06:56:20;;;;;;;20.33;17.80;;;20.80;99.90;;;;;;5070482;28;20193;-71
2021/06/15 06:58:47;;;;;;;19.43;17.43;;;20.80;99.90;;;;;;5065571;28;20501;-71
2021/06/15 07:01:12;;;;;;;22.10;18.13;;;20.90;99.90;;;;;;5048817;28;20619;-72
2021/06/15 07:03:38;;;;;;;20.50;18.20;;;21.00;99.90;;;;;;5050292;28;20455;-72
2021/06/15 07:06:04;;;;;;;22.13;17.47;;;21.00;99.90;;;;;;5050076;28;20926;-71
2021/06/15 07:08:30;;;;;;;16.73;15.03;;;21.10;99.90;;;;;;5051304;28;20210;-72
2021/06/15 07:10:56;;;;;;;19.20;16.27;;;21.10;99.90;;;;;;5051651;28;20208;-72
2021/06/15 07:13:21;;;;;;;16.30;14.70;;;21.20;99.90;;;;;;5049509;28;20476;-72
2021/06/15 07:15:47;;;;;;;17.70;14.33;;;21.20;99.90;;;;;;5049912;28;20220;-72
2021/06/15 07:18:13;;;;;;;18.17;15.20;;;21.20;99.90;;;;;;5050034;28;20201;-72
2021/06/15 07:20:38;;;;;;;18.33;15.97;;;21.10;99.90;;;;;;5050162;28;20182;-71
2021/06/15 07:23:04;;;;;;;18.20;16.30;;;21.00;99.90;;;;;;5049665;28;20209;-73
2021/06/15 07:25:30;;;;;;;16.87;14.70;;;20.90;99.90;;;;;;5050303;28;20214;-72
2021/06/15 07:27:57;;;;;;;15.50;13.87;;;21.00;99.90;;;;;;5049841;28;20937;-72
2021/06/15 07:30:23;;;;;;;20.23;15.90;;;21.20;99.90;;;;;;5049826;28;20178;-72
2021/06/15 07:32:50;;;;;;;19.13;15.10;;;21.20;99.90;;;;;;5046294;28;20455;-73
2021/06/15 07:35:16;;;;;;;16.13;14.43;;;21.20;99.90;;;;;;5036710;28;20219;-73
2021/06/15 07:37:42;;;;;;;20.57;14.23;;;21.20;99.90;;;;;;5030007;28;20724;-71
2021/06/15 07:40:11;;;;;;;17.47;15.67;;;21.30;99.90;;;;;;5029787;28;20183;-72
2021/06/15 07:42:36;;;;;;;16.43;14.73;;;21.30;99.90;;;;;;5032079;28;20648;-72
2021/06/15 07:45:03;;;;;;;15.17;12.83;;;21.30;99.90;;;;;;5043616;28;20464;-72
2021/06/15 07:47:29;;;;;;;14.10;12.80;;;21.50;99.90;;;;;;5039620;28;20637;-72
2021/06/15 07:49:54;;;;;;;17.30;13.23;;;21.70;99.90;;;;;;5056439;28;20431;-72
2021/06/15 07:52:27;;;;;;;15.20;13.07;;;21.80;99.90;;;;;;5053045;28;20228;-73
2021/06/15 07:54:53;;;;;;;13.50;11.60;;;22.00;99.90;;;;;;5053270;28;20277;-72
2021/06/15 07:57:25;;;;;;;13.50;12.10;;;22.20;99.90;;;;;;5052574;28;20872;-74
2021/06/15 07:59:54;;;;;;;19.53;13.20;;;22.20;99.90;;;;;;5053453;28;20284;-75
2021/06/15 08:02:19;;;;;;;14.47;12.37;;;22.20;99.90;;;;;;5053470;28;20417;-73
2021/06/15 08:04:45;;;;;;;12.80;11.50;;;22.10;99.90;;;;;;5044816;28;21232;-74
2021/06/15 08:07:11;;;;;;;15.15;13.65;;;22.10;99.90;;;;;;5034812;28;20425;-73
2021/06/15 08:09:36;;;;;;;13.37;12.00;;;22.20;99.90;;;;;;5033310;28;20199;-72
2021/06/15 08:12:02;;;;;;;16.10;14.57;;;22.10;99.90;;;;;;5033345;28;20167;-74
2021/06/15 08:14:27;;;;;;;17.27;13.90;;;22.10;99.90;;;;;;5044172;28;20186;-73
2021/06/15 08:16:53;;;;;;;16.40;14.47;;;22.20;99.90;;;;;;5034181;28;20194;-72
2021/06/15 08:19:19;;;;;;;16.20;12.90;;;22.30;99.90;;;;;;5052078;28;20619;-72
2021/06/15 08:21:45;;;;;;;15.63;13.70;;;22.40;99.90;;;;;;5053434;28;20436;-72
2021/06/15 08:24:14;;;;;;;14.37;11.77;;;22.40;99.90;;;;;;5052146;28;20174;-74
2021/06/15 08:26:41;;;;;;;21.83;14.30;;;22.40;99.90;;;;;;5044882;28;20284;-73
2021/06/15 08:29:06;;;;;;;19.50;13.10;;;22.60;99.90;;;;;;5046601;28;20456;-72
2021/06/15 08:31:32;;;;;;;13.37;11.80;;;22.50;99.90;;;;;;5051536;28;20420;-72
2021/06/15 08:33:57;;;;;;;14.80;10.90;;;22.50;99.90;;;;;;5051874;28;20185;-73
2021/06/15 08:36:23;;;;;;;13.43;9.87;;;22.60;99.90;;;;;;5051656;28;20197;-73
2021/06/15 08:38:48;;;;;;;12.50;10.83;;;22.80;99.90;;;;;;5052573;28;20174;-73
2021/06/15 08:41:18;;;;;;;12.10;10.77;;;22.70;99.90;;;;;;5052191;28;20194;-73
2021/06/15 08:43:44;;;;;;;9.83;8.50;;;22.70;99.90;;;;;;5052320;28;20648;-73
2021/06/15 08:46:12;;;;;;;13.40;10.53;;;22.80;99.90;;;;;;5053597;28;20519;-72
2021/06/15 08:48:37;;;;;;;12.50;9.83;;;22.80;99.90;;;;;;5051897;28;20205;-73
2021/06/15 08:51:03;;;;;;;14.30;8.97;;;22.90;99.90;;;;;;5042357;28;20453;-73
2021/06/15 08:53:37;;;;;;;8.77;7.13;;;22.80;99.90;;;;;;5034729;28;20167;-74
2021/06/15 08:56:24;;;;;;;9.67;7.00;;;23.00;99.80;;;;;;5053330;28;20276;-73
2021/06/15 08:59:11;;;;;;;8.03;7.30;;;23.10;99.50;;;;;;5053091;28;20489;-73
2021/06/15 09:01:36;;;;;;;8.90;6.60;;;23.20;99.60;;;;;;5054206;28;20425;-72
2021/06/15 09:04:02;;;;;;;11.27;8.93;;;23.50;99.40;;;;;;5055693;28;20416;-72
2021/06/15 09:06:28;;;;;;;9.10;7.67;;;23.60;99.10;;;;;;5056106;28;20186;-72
2021/06/15 09:08:58;;;;;;;9.20;7.80;;;23.60;99.30;;;;;;5056336;28;20202;-73
2021/06/15 09:11:25;;;;;;;13.20;7.20;;;23.70;99.20;;;;;;5055305;28;20173;-72
2021/06/15 09:13:52;;;;;;;9.97;6.47;;;23.80;99.00;;;;;;5055511;28;20469;-73
2021/06/15 09:16:35;;;;;;;8.07;7.33;;;23.80;98.90;;;;;;5055005;28;20424;-72
2021/06/15 09:19:12;;;;;;;10.70;7.97;;;23.90;98.70;;;;;;5055441;28;20417;-74
2021/06/15 09:21:41;;;;;;;8.83;7.97;;;23.90;98.70;;;;;;5054861;28;20413;-73
2021/06/15 09:24:09;;;;;;;7.60;6.80;;;24.00;98.70;;;;;;5055424;28;20487;-72
2021/06/15 09:27:11;;;;;;;10.03;9.17;;;23.90;98.30;;;;;;5055141;28;20436;-72
2021/06/15 09:29:51;;;;;;;11.17;9.30;;;23.90;98.20;;;;;;5052770;28;20578;-72
2021/06/15 09:32:21;;;;;;;10.20;8.77;;;23.90;98.30;;;;;;5053008;28;20432;-71
2021/06/15 09:35:10;;;;;;;10.35;9.25;;;23.80;98.70;;;;;;5052662;28;20415;-73
2021/06/15 09:37:47;;;;;;;11.17;8.73;;;23.80;98.70;;;;;;5052502;28;20183;-72
2021/06/15 09:40:22;;;;;;;9.60;8.43;;;23.90;98.50;;;;;;5052177;28;20425;-71
2021/06/15 09:43:05;;;;;;;10.40;9.40;;;23.80;98.80;;;;;;5052547;28;20786;-73
2021/06/15 09:45:35;;;;;;;10.17;9.23;;;23.60;99.00;;;;;;5052562;28;20437;-72
2021/06/15 09:48:35;;;;;;;9.70;8.80;;;23.50;99.10;;;;;;5051869;28;20456;-72
2021/06/15 09:51:05;;;;;;;11.77;9.40;;;23.60;99.30;;;;;;5050609;28;20435;-72
2021/06/15 09:53:33;;;;;;;12.20;9.07;;;23.80;99.10;;;;;;5051761;28;20401;-72
2021/06/15 09:56:07;;;;;;;11.90;8.90;;;23.80;99.00;;;;;;5052480;28;20527;-72
2021/06/15 09:58:54;;;;;;;11.20;9.23;;;24.10;98.80;;;;;;5052355;28;20641;-73
2021/06/15 10:01:24;;;;;;;8.13;6.70;;;24.10;98.00;;;;;;5052537;28;20452;-72
2021/06/15 10:04:07;;;;;;;9.10;5.50;;;24.10;96.90;;;;;;5054627;28;20759;-73
2021/06/15 10:06:38;;;;;;;5.60;4.87;;;24.00;96.20;;;;;;5055767;28;20436;-72
2021/06/15 10:09:05;;;;;;;10.73;6.53;;;24.00;96.40;;;;;;5054574;28;20455;-73
2021/06/15 10:11:32;;;;;;;6.53;5.93;;;24.10;96.80;;;;;;5054794;28;20409;-73
2021/06/15 10:13:58;;;;;;;7.57;5.60;;;24.10;96.90;;;;;;5053061;28;20420;-72
2021/06/15 10:16:24;;;;;;;8.27;7.40;;;24.10;96.40;;;;;;5054204;28;20489;-73
2021/06/15 10:18:50;;;;;;;9.50;8.00;;;24.10;97.00;;;;;;5052565;28;20872;-72
2021/06/15 10:21:17;;;;;;;7.37;6.67;;;24.10;96.50;;;;;;5053955;28;20563;-72
2021/06/15 10:23:46;;;;;;;7.43;6.30;;;24.10;96.70;;;;;;5053021;28;20914;-73
2021/06/15 10:26:12;;;;;;;5.37;4.87;;;24.30;96.50;;;;;;5053848;28;20428;-73
2021/06/15 10:28:38;;;;;;;7.27;5.03;;;24.20;95.00;;;;;;5053843;28;21056;-73
2021/06/15 10:31:05;;;;;;;7.93;5.50;;;24.00;95.20;;;;;;5054883;28;20420;-70
2021/06/15 10:33:44;;;;;;;7.17;6.47;;;24.00;95.60;;;;;;5054605;28;20417;-73
2021/06/15 10:36:11;;;;;;;7.37;6.67;;;24.00;95.50;;;;;;5053645;28;20436;-72
2021/06/15 10:38:47;;;;;;;8.77;5.73;;;24.10;96.10;;;;;;5054118;28;20413;-73
2021/06/15 10:41:23;;;;;;;5.70;5.20;;;24.20;95.60;;;;;;5054223;28;20397;-71
2021/06/15 10:43:56;;;;;;;6.30;4.30;;;24.20;94.90;;;;;;5053636;28;20448;-72
2021/06/15 10:46:21;;;;;;;5.53;4.90;;;24.20;93.90;;;;;;5053720;28;20441;-72
2021/06/15 10:48:56;;;;;;;8.97;5.43;;;24.20;94.20;;;;;;5055751;28;20451;-72
2021/06/15 10:51:27;;;;;;;6.83;5.10;;;24.30;94.80;;;;;;5073848;28;20555;-72
2021/06/15 10:54:02;;;;;;;9.00;7.68;;;24.40;94.90;;;;;;5067399;28;20400;-71
2021/06/15 10:56:32;;;;;;;6.70;6.10;;;24.30;94.90;;;;;;5053274;28;20194;-72
2021/06/15 10:59:09;;;;;;;7.47;6.20;;;24.30;94.60;;;;;;5053565;28;20833;-70
2021/06/15 11:01:42;;;;;;;6.93;6.23;;;24.30;94.80;;;;;;5053596;28;20412;-72
2021/06/15 11:04:10;;;;;;;21.30;6.93;;;24.40;95.00;;;;;;5053608;28;20939;-71
2021/06/15 11:06:36;;;;;;;9.93;6.77;;;24.50;95.20;;;;;;5053322;28;20448;-71
2021/06/15 11:09:05;;;;;;;6.60;6.00;;;24.60;94.60;;;;;;5054437;28;20535;-72
2021/06/15 11:11:35;;;;;;;5.93;5.30;;;24.50;93.90;;;;;;5056361;28;20809;-72
2021/06/15 11:14:18;;;;;;;8.60;5.10;;;24.40;93.60;;;;;;5057014;28;20460;-71
2021/06/15 11:16:49;;;;;;;11.30;5.20;;;24.50;93.70;;;;;;5051814;28;20831;-72
2021/06/15 11:19:16;;;;;;;7.17;5.67;;;24.60;94.00;;;;;;5053609;28;20417;-71
2021/06/15 11:21:58;;;;;;;8.80;6.60;;;24.60;93.60;;;;;;5054107;28;20889;-71
2021/06/15 11:24:45;;;;;;;7.10;6.40;;;24.70;93.90;;;;;;5052701;28;20409;-71
2021/06/15 11:27:13;;;;;;;6.13;5.40;;;24.50;94.20;;;;;;5055800;28;20787;-70
2021/06/15 11:29:49;;;;;;;27.20;6.23;;;24.40;93.90;;;;;;5056790;28;20456;-72
2021/06/15 11:32:18;;;;;;;6.70;6.10;;;24.40;94.20;;;;;;5057337;28;20967;-71
2021/06/15 11:34:52;;;;;;;8.20;6.20;;;24.50;94.00;;;;;;5056451;28;20910;-72
2021/06/15 11:37:20;;;;;;;10.40;6.43;;;24.50;94.00;;;;;;5056777;28;20442;-72
2021/06/15 11:39:46;;;;;;;6.80;6.20;;;24.60;93.90;;;;;;5056610;28;20446;-72
2021/06/15 11:42:28;;;;;;;6.33;5.73;;;24.50;93.50;;;;;;5057337;28;20832;-72
2021/06/15 11:45:23;;;;;;;5.37;4.97;;;24.40;93.30;;;;;;5057444;28;20527;-74
2021/06/15 11:48:12;;;;;;;5.50;4.60;;;24.40;93.40;;;;;;5056339;28;20470;-71
2021/06/15 11:50:40;;;;;;;5.50;4.20;;;24.50;92.90;;;;;;5069715;28;20417;-71
2021/06/15 11:53:10;;;;;;;4.47;3.63;;;24.60;92.60;;;;;;5057263;28;20435;-71
2021/06/15 11:55:38;;;;;;;6.00;3.53;;;24.70;91.30;;;;;;5057645;28;20512;-71
2021/06/15 11:58:12;;;;;;;7.77;5.13;;;24.90;91.60;;;;;;5058364;28;20404;-72
2021/06/15 12:00:43;;;;;;;6.57;4.50;;;25.10;91.70;;;;;;5059585;28;20477;-71
2021/06/15 12:03:24;;;;;;;5.30;4.53;;;25.00;91.60;;;;;;5058969;28;20393;-72
2021/06/15 12:05:52;;;;;;;8.37;4.80;;;25.20;91.80;;;;;;5058417;28;20913;-72
2021/06/15 12:08:18;;;;;;;5.10;4.50;;;25.30;91.90;;;;;;5057773;28;20455;-72
2021/06/15 12:10:45;;;;;;;7.50;5.50;;;25.50;91.80;;;;;;5057183;28;20420;-72
2021/06/15 12:13:15;;;;;;;7.67;5.27;;;25.80;91.40;;;;;;5056828;28;20499;-72
2021/06/15 12:15:43;;;;;;;5.93;4.90;;;25.70;91.40;;;;;;5057060;28;20425;-72
2021/06/15 12:18:21;;;;;;;6.63;5.30;;;25.80;90.90;;;;;;5055387;28;20405;-72
2021/06/15 12:20:48;;;;;;;5.97;4.83;;;25.70;91.10;;;;;;5056769;28;20451;-71
2021/06/15 12:23:29;;;;;;;6.50;4.90;;;25.50;91.70;;;;;;5057352;28;20504;-72
2021/06/15 12:26:03;;;;;;;8.87;5.20;;;25.60;91.50;;;;;;5057608;28;20509;-71
2021/06/15 12:28:28;;;;;;;6.50;5.50;;;25.50;91.40;;;;;;5056683;28;20620;-73
2021/06/15 12:31:04;;;;;;;6.90;5.63;;;25.70;91.10;;;;;;5056029;28;20464;-72
2021/06/15 12:33:29;;;;;;;6.17;4.47;;;25.90;90.90;;;;;;5055992;28;20173;-72
2021/06/15 12:36:00;;;;;;;5.17;4.40;;;26.10;90.50;;;;;;5055771;28;20512;-72
2021/06/15 12:38:25;;;;;;;7.27;4.10;;;26.00;90.30;;;;;;5056033;28;20173;-72
2021/06/15 12:40:51;;;;;;;6.93;5.47;;;26.20;90.40;;;;;;5056061;28;20400;-72
2021/06/15 12:43:17;;;;;;;4.20;3.77;;;26.10;89.80;;;;;;5056104;28;20199;-73
2021/06/15 12:45:43;;;;;;;4.20;3.80;;;26.10;90.10;;;;;;5056075;28;20568;-72
2021/06/15 12:48:25;;;;;;;5.90;4.50;;;26.40;89.60;;;;;;5053801;28;20440;-73
2021/06/15 12:51:06;;;;;;;4.43;4.00;;;26.50;88.90;;;;;;5076112;28;20181;-72